createdAt,value
2022-08-17T00:00:44.086Z,100297.02
2022-08-17T00:03:15.201Z,100295.13
2022-08-17T00:06:04.052Z,100294.25
2022-08-17T00:08:38.319Z,100296.08
2022-08-17T00:11:09.805Z,100299.47
2022-08-17T00:13:42.716Z,100303.37
2022-08-17T00:16:15.250Z,100305.20
2022-08-17T00:19:01.732Z,100309.20
2022-08-17T00:22:31.003Z,100312.04
2022-08-17T00:24:20.682Z,100312.23
2022-08-17T00:26:48.494Z,100309.65
2022-08-17T00:29:19.855Z,100313.14
2022-08-17T00:31:49.488Z,100307.72
2022-08-17T00:34:17.638Z,100308.73
2022-08-17T00:36:45.473Z,100307.84
2022-08-17T00:39:13.180Z,100304.95
2022-08-17T00:41:42.500Z,100305.98
2022-08-17T00:44:12.412Z,100305.09
2022-08-17T00:46:42.446Z,100303.65
2022-08-17T00:49:12.650Z,100300.77
2022-08-17T00:51:40.364Z,100300.38
2022-08-17T00:54:23.454Z,100303.27
2022-08-17T00:56:56.991Z,100304.53
2022-08-17T00:59:33.095Z,100304.98
2022-08-17T01:02:02.735Z,100303.71
2022-08-17T01:04:33.491Z,100306.14
2022-08-17T01:07:02.671Z,100302.47
2022-08-17T01:09:31.639Z,100302.27
2022-08-17T01:12:00.238Z,100301.52
2022-08-17T01:14:27.964Z,100297.77
2022-08-17T01:16:56.281Z,100299.73
2022-08-17T01:19:28.869Z,100299.74
2022-08-17T01:22:11.780Z,100297.25
2022-08-17T01:24:43.848Z,100297.19
2022-08-17T01:27:13.904Z,100297.68
2022-08-17T01:29:45.550Z,100300.39
2022-08-17T01:32:13.422Z,100298.48
2022-08-17T01:34:43.962Z,100295.80
2022-08-17T01:37:27.748Z,100297.44
2022-08-17T01:40:01.298Z,100299.55
2022-08-17T01:42:54.861Z,100298.33
2022-08-17T01:45:30.499Z,100297.27
2022-08-17T01:47:58.740Z,100297.09
2022-08-17T01:50:31.989Z,100295.16
2022-08-17T01:53:04.368Z,100291.36
2022-08-17T01:55:38.204Z,100292.69
2022-08-17T01:58:09.862Z,100291.85
2022-08-17T02:00:59.610Z,100293.42
2022-08-17T02:03:29.772Z,100293.73
2022-08-17T02:05:58.313Z,100293.04
2022-08-17T02:08:36.869Z,100290.08
2022-08-17T02:11:12.344Z,100286.86
2022-08-17T02:13:40.517Z,100289.69
2022-08-17T02:16:08.225Z,100287.08
2022-08-17T02:18:36.143Z,100287.09
2022-08-17T02:21:03.991Z,100289.04
2022-08-17T02:23:35.601Z,100287.63
2022-08-17T02:26:03.643Z,100284.64
2022-08-17T02:28:31.904Z,100278.64
2022-08-17T02:31:06.183Z,100277.21
2022-08-17T02:33:42.730Z,100276.88
2022-08-17T02:36:13.194Z,100275.48
2022-08-17T02:38:42.332Z,100278.19
2022-08-17T02:41:10.403Z,100277.37
2022-08-17T02:43:38.153Z,100276.33
2022-08-17T02:46:05.958Z,100279.04
2022-08-17T02:48:33.617Z,100277.99
2022-08-17T02:51:01.749Z,100279.96
2022-08-17T02:53:35.888Z,100277.33
2022-08-17T02:56:04.587Z,100277.18
2022-08-17T02:58:34.930Z,100279.38
2022-08-17T03:01:05.842Z,100283.68
2022-08-17T03:03:34.798Z,100289.00
2022-08-17T03:06:03.308Z,100289.40
2022-08-17T03:08:31.682Z,100288.70
2022-08-17T03:10:59.676Z,100288.72
2022-08-17T03:13:27.638Z,100289.58
2022-08-17T03:15:55.642Z,100290.79
2022-08-17T03:18:25.684Z,100293.10
2022-08-17T03:20:56.255Z,100290.27
2022-08-17T03:23:25.575Z,100293.84
2022-08-17T03:25:54.529Z,100295.11
2022-08-17T03:28:23.695Z,100302.73
2022-08-17T03:30:52.230Z,100302.38
2022-08-17T03:33:19.985Z,100302.59
2022-08-17T03:35:48.096Z,100303.48
2022-08-17T03:38:17.503Z,100303.48
2022-08-17T03:40:56.290Z,100300.48
2022-08-17T03:43:29.086Z,100307.73
2022-08-17T03:46:34.722Z,100307.23
2022-08-17T03:49:26.792Z,100312.92
2022-08-17T03:52:14.652Z,100314.52
2022-08-17T03:55:19.242Z,100319.13
2022-08-17T03:57:47.121Z,100317.53
2022-08-17T04:00:15.688Z,100321.58
2022-08-17T04:02:43.602Z,100322.46
2022-08-17T04:05:11.292Z,100322.61
2022-08-17T04:07:38.978Z,100322.23
2022-08-17T04:10:07.807Z,100324.48
2022-08-17T04:13:05.011Z,100326.73
2022-08-17T04:15:33.767Z,100331.59
2022-08-17T04:18:01.616Z,100333.14
2022-08-17T04:20:29.542Z,100332.61
2022-08-17T04:23:06.643Z,100333.10
2022-08-17T04:25:36.944Z,100338.22
2022-08-17T04:28:12.527Z,100342.55
2022-08-17T04:30:45.680Z,100342.02
2022-08-17T04:33:19.433Z,100342.00
2022-08-17T04:35:50.448Z,100345.27
2022-08-17T04:38:21.560Z,100349.42
2022-08-17T04:41:08.841Z,100348.66
2022-08-17T04:43:38.945Z,100349.29
2022-08-17T04:46:12.613Z,100349.83
2022-08-17T04:48:49.117Z,100351.00
2022-08-17T04:51:24.703Z,100353.42
2022-08-17T04:53:55.970Z,100352.26
2022-08-17T04:56:25.972Z,100354.85
2022-08-17T04:58:57.139Z,100355.04
2022-08-17T05:01:26.361Z,100354.33
2022-08-17T05:03:56.542Z,100355.36
2022-08-17T05:06:24.952Z,100356.67
2022-08-17T05:08:53.692Z,100358.09
2022-08-17T05:11:22.641Z,100360.66
2022-08-17T05:13:50.499Z,100364.25
2022-08-17T05:16:20.383Z,100362.97
2022-08-17T05:18:48.074Z,100365.30
2022-08-17T05:21:16.737Z,100364.26
2022-08-17T05:23:45.493Z,100367.43
2022-08-17T05:26:25.897Z,100366.80
2022-08-17T05:28:56.591Z,100371.29
2022-08-17T05:31:26.675Z,100371.73
2022-08-17T05:33:54.451Z,100377.63
2022-08-17T05:36:37.966Z,100378.71
2022-08-17T05:39:14.376Z,100378.31
2022-08-17T05:41:48.381Z,100378.90
2022-08-17T05:44:17.178Z,100374.33
2022-08-17T05:46:50.167Z,100379.69
2022-08-17T05:49:25.266Z,100377.02
2022-08-17T05:52:03.477Z,100375.80
2022-08-17T05:54:44.877Z,100377.77
2022-08-17T05:57:53.012Z,100375.52
2022-08-17T06:00:45.776Z,100377.09
2022-08-17T06:03:33.212Z,100378.78
2022-08-17T06:06:36.068Z,100371.06
2022-08-17T06:09:36.074Z,100377.88
2022-08-17T06:12:30.265Z,100380.56
2022-08-17T06:15:24.956Z,100384.02
2022-08-17T06:17:58.819Z,100384.34
2022-08-17T06:20:32.678Z,100385.14
2022-08-17T06:23:08.454Z,100388.77
2022-08-17T06:25:49.692Z,100388.17
2022-08-17T06:28:30.291Z,100393.78
2022-08-17T06:31:07.060Z,100400.06
2022-08-17T06:33:40.007Z,100405.63
2022-08-17T06:36:32.255Z,100405.17
2022-08-17T06:39:05.343Z,100405.02
2022-08-17T06:41:37.993Z,100404.89
2022-08-17T06:44:50.135Z,100402.85
2022-08-17T06:47:51.804Z,100406.48
2022-08-17T06:50:40.114Z,100405.50
2022-08-17T06:53:35.170Z,100409.73
2022-08-17T06:56:08.868Z,100408.23
2022-08-17T06:58:40.402Z,100415.77
2022-08-17T07:01:17.963Z,100416.25
2022-08-17T07:04:13.773Z,100417.29
2022-08-17T07:06:52.888Z,100413.23
2022-08-17T07:09:40.804Z,100415.55
2022-08-17T07:12:16.300Z,100414.27
2022-08-17T07:14:59.812Z,100412.75
2022-08-17T07:17:57.735Z,100416.44
2022-08-17T07:20:20.641Z,100414.52
2022-08-17T07:23:17.558Z,100413.56
2022-08-17T07:25:45.198Z,100415.75
2022-08-17T07:28:13.111Z,100416.89
2022-08-17T07:31:01.108Z,100420.97
2022-08-17T07:33:31.037Z,100427.83
2022-08-17T07:35:59.447Z,100432.77
2022-08-17T07:38:30.872Z,100431.92
2022-08-17T07:41:04.903Z,100435.57
2022-08-17T07:43:45.739Z,100434.05
2022-08-17T07:46:35.467Z,100436.71
2022-08-17T07:49:09.275Z,100438.98
2022-08-17T07:51:52.904Z,100438.70
2022-08-17T07:54:23.932Z,100439.13
2022-08-17T07:56:56.434Z,100440.20
2022-08-17T07:59:26.366Z,100437.41
2022-08-17T08:01:58.183Z,100440.56
2022-08-17T08:05:00.577Z,100434.15
2022-08-17T08:07:34.817Z,100429.81
2022-08-17T08:10:27.642Z,100431.46
2022-08-17T08:13:15.266Z,100429.17
2022-08-17T08:15:53.719Z,100428.23
2022-08-17T08:18:53.803Z,100428.03
2022-08-17T08:22:10.764Z,100427.33
2022-08-17T08:24:51.469Z,100430.11
2022-08-17T08:28:03.497Z,100430.73
2022-08-17T08:30:38.670Z,100432.88
2022-08-17T08:33:38.642Z,100428.73
2022-08-17T08:37:12.551Z,100429.70
2022-08-17T08:39:42.232Z,100430.14
2022-08-17T08:42:37.766Z,100428.79
2022-08-17T08:45:24.818Z,100426.80
2022-08-17T08:48:53.786Z,100427.14
2022-08-17T08:51:55.682Z,100427.94
2022-08-17T08:54:39.093Z,100423.13
2022-08-17T08:57:26.840Z,100421.57
2022-08-17T09:00:07.031Z,100416.20
2022-08-17T09:02:56.308Z,100412.38
2022-08-17T09:05:45.572Z,100406.99
2022-08-17T09:08:29.675Z,100410.67
2022-08-17T09:12:02.140Z,100414.45
2022-08-17T09:14:46.824Z,100410.76
2022-08-17T09:17:21.248Z,100411.42
2022-08-17T09:19:54.849Z,100411.02
2022-08-17T09:22:30.522Z,100411.45
2022-08-17T09:25:12.178Z,100411.40
2022-08-17T09:27:46.427Z,100412.04
2022-08-17T09:30:15.068Z,100411.08
2022-08-17T09:32:52.156Z,100407.90
2022-08-17T09:35:32.891Z,100407.89
2022-08-17T09:38:19.774Z,100406.95
2022-08-17T09:41:15.556Z,100407.61
2022-08-17T09:44:02.570Z,100404.84
2022-08-17T09:46:43.632Z,100397.48
2022-08-17T09:49:31.392Z,100395.60
2022-08-17T09:52:19.699Z,100393.35
2022-08-17T09:54:51.023Z,100393.77
2022-08-17T09:57:53.259Z,100386.91
2022-08-17T10:00:33.241Z,100391.29
2022-08-17T10:03:34.394Z,100387.71
2022-08-17T10:06:13.343Z,100387.08
2022-08-17T10:09:06.534Z,100386.09
2022-08-17T10:12:25.179Z,100388.17
2022-08-17T10:15:22.585Z,100390.05
2022-08-17T10:18:08.915Z,100391.52
2022-08-17T10:20:45.665Z,100391.06
2022-08-17T10:23:42.461Z,100387.29
2022-08-17T10:26:20.174Z,100384.35
2022-08-17T10:29:06.753Z,100381.58
2022-08-17T10:31:51.827Z,100382.20
2022-08-17T10:35:00.003Z,100390.41
2022-08-17T10:37:59.929Z,100389.95
2022-08-17T10:40:34.041Z,100390.96
2022-08-17T10:43:42.181Z,100392.75
2022-08-17T10:46:43.948Z,100396.30
2022-08-17T10:49:17.383Z,100403.14
2022-08-17T10:51:48.656Z,100398.92
2022-08-17T10:54:25.436Z,100396.48
2022-08-17T10:56:55.369Z,100396.02
2022-08-17T10:59:35.411Z,100398.04
2022-08-17T11:02:23.276Z,100400.39
2022-08-17T11:05:07.815Z,100399.39
2022-08-17T11:07:35.420Z,100390.48
2022-08-17T11:10:37.955Z,100387.70
2022-08-17T11:13:29.955Z,100395.10
2022-08-17T11:16:09.965Z,100394.48
2022-08-17T11:18:59.190Z,100390.12
2022-08-17T11:21:59.083Z,100396.67
2022-08-17T11:24:40.042Z,100392.63
2022-08-17T11:27:13.867Z,100394.27
2022-08-17T11:29:56.752Z,100395.39
2022-08-17T11:32:54.460Z,100392.36
2022-08-17T11:35:22.546Z,100392.35
2022-08-17T11:38:16.625Z,100386.77
2022-08-17T11:40:50.409Z,100384.05
2022-08-17T11:43:45.684Z,100379.93
2022-08-17T11:46:24.284Z,100379.44
2022-08-17T11:49:38.659Z,100376.30
2022-08-17T11:52:33.565Z,100373.95
2022-08-17T11:55:17.976Z,100372.15
2022-08-17T11:58:00.969Z,100373.93
2022-08-17T12:00:47.345Z,100373.27
2022-08-17T12:03:43.267Z,100373.61
2022-08-17T12:06:41.385Z,100366.00
2022-08-17T12:09:21.086Z,100365.21
2022-08-17T12:12:19.597Z,100366.34
2022-08-17T12:15:11.407Z,100362.90
2022-08-17T12:17:42.998Z,100369.92
2022-08-17T12:20:32.366Z,100366.02
2022-08-17T12:23:21.184Z,100365.61
2022-08-17T12:25:59.759Z,100360.64
2022-08-17T12:28:33.841Z,100360.23
2022-08-17T12:31:05.847Z,100360.60
2022-08-17T12:33:37.161Z,100360.67
2022-08-17T12:36:08.743Z,100362.27
2022-08-17T12:38:38.322Z,100358.33
2022-08-17T12:41:28.618Z,100361.23
2022-08-17T12:44:13.410Z,100361.69
2022-08-17T12:46:56.253Z,100364.29
2022-08-17T12:49:32.870Z,100363.36
2022-08-17T12:52:14.364Z,100362.31
2022-08-17T12:54:56.206Z,100359.59
2022-08-17T12:57:33.221Z,100356.05
2022-08-17T13:00:08.351Z,100358.18
2022-08-17T13:02:57.908Z,100354.83
2022-08-17T13:05:31.459Z,100351.64
2022-08-17T13:08:00.074Z,100347.60
2022-08-17T13:10:33.113Z,100345.20
2022-08-17T13:13:19.534Z,100340.88
2022-08-17T13:15:59.633Z,100343.02
2022-08-17T13:18:36.260Z,100338.23
2022-08-17T13:21:05.524Z,100341.17
2022-08-17T13:23:33.402Z,100338.23
2022-08-17T13:26:16.029Z,100338.48
2022-08-17T13:28:50.161Z,100336.39
2022-08-17T13:31:30.232Z,100334.73
2022-08-17T13:34:29.404Z,100332.13
2022-08-17T13:37:18.939Z,100330.50
2022-08-17T13:39:49.588Z,100322.85
2022-08-17T13:42:53.028Z,100320.29
2022-08-17T13:45:50.864Z,100322.94
2022-08-17T13:48:32.797Z,100317.55
2022-08-17T13:51:00.535Z,100317.95
2022-08-17T13:53:37.477Z,100314.06
2022-08-17T13:56:33.185Z,100314.54
2022-08-17T13:59:11.296Z,100313.27
2022-08-17T14:01:52.568Z,100311.34
2022-08-17T14:04:25.272Z,100316.52
2022-08-17T14:07:15.487Z,100314.61
2022-08-17T14:09:54.707Z,100314.98
2022-08-17T14:12:25.155Z,100320.35
2022-08-17T14:14:55.469Z,100318.20
2022-08-17T14:17:24.679Z,100320.44
2022-08-17T14:19:52.703Z,100314.88
2022-08-17T14:22:28.533Z,100313.85
2022-08-17T14:24:59.588Z,100305.34
2022-08-17T14:27:28.302Z,100303.52
2022-08-17T14:29:56.492Z,100309.88
2022-08-17T14:32:28.430Z,100311.76
2022-08-17T14:34:57.816Z,100316.95
2022-08-17T14:37:28.187Z,100314.66
2022-08-17T14:39:58.670Z,100312.34
2022-08-17T14:42:29.730Z,100312.67
2022-08-17T14:45:06.048Z,100315.64
2022-08-17T14:47:35.861Z,100314.17
2022-08-17T14:50:06.373Z,100314.85
2022-08-17T14:52:36.882Z,100314.75
2022-08-17T14:55:06.626Z,100320.75
2022-08-17T14:57:34.644Z,100318.82
2022-08-17T15:00:04.304Z,100317.65
2022-08-17T15:02:43.753Z,100317.80
2022-08-17T15:05:13.462Z,100315.25
2022-08-17T15:07:41.134Z,100317.56
2022-08-17T15:10:09.118Z,100321.35
2022-08-17T15:12:36.912Z,100321.30
2022-08-17T15:15:06.291Z,100322.70
2022-08-17T15:17:45.126Z,100321.91
2022-08-17T15:20:17.899Z,100324.27
2022-08-17T15:22:49.928Z,100326.23
2022-08-17T15:25:19.247Z,100325.39
2022-08-17T15:27:47.704Z,100329.02
2022-08-17T15:30:16.656Z,100324.89
2022-08-17T15:32:50.761Z,100324.83
2022-08-17T15:35:27.442Z,100326.35
2022-08-17T15:38:11.144Z,100323.83
2022-08-17T15:40:43.661Z,100324.95
2022-08-17T15:43:23.280Z,100322.14
2022-08-17T15:46:02.538Z,100326.09
2022-08-17T15:48:42.357Z,100319.48
2022-08-17T15:51:12.048Z,100316.05
2022-08-17T15:53:42.297Z,100314.20
2022-08-17T15:56:11.460Z,100319.02
2022-08-17T15:58:41.907Z,100318.04
2022-08-17T16:01:16.983Z,100321.42
2022-08-17T16:04:04.262Z,100319.85
2022-08-17T16:06:35.302Z,100319.79
2022-08-17T16:09:03.033Z,100317.50
2022-08-17T16:11:30.721Z,100319.14
2022-08-17T16:13:58.366Z,100319.27
2022-08-17T16:16:29.048Z,100316.27
2022-08-17T16:18:58.660Z,100311.41
2022-08-17T16:21:27.536Z,100312.77
2022-08-17T16:24:06.857Z,100311.39
2022-08-17T16:26:41.216Z,100315.44
2022-08-17T16:29:09.353Z,100311.73
2022-08-17T16:31:37.850Z,100311.81
2022-08-17T16:34:17.069Z,100310.70
2022-08-17T16:36:51.709Z,100313.08
2022-08-17T16:39:29.263Z,100317.89
2022-08-17T16:41:57.595Z,100319.00
2022-08-17T16:44:29.056Z,100319.45
2022-08-17T16:46:57.532Z,100324.00
2022-08-17T16:49:36.762Z,100325.64
2022-08-17T16:52:10.638Z,100326.04
2022-08-17T16:54:43.836Z,100325.55
2022-08-17T16:57:13.092Z,100323.92
2022-08-17T16:59:43.933Z,100322.95
2022-08-17T17:02:23.692Z,100322.73
2022-08-17T17:05:14.553Z,100318.50
2022-08-17T17:08:04.044Z,100318.20
2022-08-17T17:10:48.393Z,100319.91
2022-08-17T17:13:41.322Z,100324.96
2022-08-17T17:16:26.394Z,100331.26
2022-08-17T17:19:27.887Z,100333.89
2022-08-17T17:22:20.327Z,100333.02
2022-08-17T17:25:12.374Z,100330.15
2022-08-17T17:27:55.794Z,100329.73
2022-08-17T17:30:53.175Z,100326.80
2022-08-17T17:33:29.110Z,100335.58
2022-08-17T17:36:06.980Z,100332.10
2022-08-17T17:38:43.099Z,100324.82
2022-08-17T17:41:25.369Z,100325.75
2022-08-17T17:44:17.890Z,100324.55
2022-08-17T17:46:55.287Z,100327.16
2022-08-17T17:49:24.772Z,100325.83
2022-08-17T17:52:09.938Z,100325.69
2022-08-17T17:55:03.038Z,100326.88
2022-08-17T17:57:46.961Z,100325.27
2022-08-17T18:00:23.738Z,100326.39
2022-08-17T18:03:03.677Z,100329.67
2022-08-17T18:05:37.437Z,100341.18
2022-08-17T18:08:37.822Z,100346.86
2022-08-17T18:11:35.400Z,100349.28
2022-08-17T18:14:23.575Z,100351.75
2022-08-17T18:16:57.741Z,100354.04
2022-08-17T18:19:28.085Z,100355.27
2022-08-17T18:22:14.474Z,100356.76
2022-08-17T18:24:45.222Z,100350.21
2022-08-17T18:27:34.637Z,100349.19
2022-08-17T18:30:14.489Z,100344.26
2022-08-17T18:32:46.437Z,100340.46
2022-08-17T18:35:14.383Z,100340.79
2022-08-17T18:37:51.647Z,100344.52
2022-08-17T18:40:19.731Z,100347.40
2022-08-17T18:42:50.330Z,100349.36
2022-08-17T18:45:38.676Z,100339.95
2022-08-17T18:48:19.690Z,100342.47
2022-08-17T18:50:48.258Z,100343.42
2022-08-17T18:53:34.766Z,100351.56
2022-08-17T18:56:30.558Z,100352.73
2022-08-17T18:59:16.907Z,100358.70
2022-08-17T19:02:03.229Z,100366.67
2022-08-17T19:04:36.891Z,100364.30
2022-08-17T19:07:26.677Z,100357.68
2022-08-17T19:10:06.940Z,100357.46
2022-08-17T19:12:43.128Z,100359.06
2022-08-17T19:15:13.851Z,100364.09
2022-08-17T19:17:53.007Z,100369.90
2022-08-17T19:20:37.970Z,100371.77
2022-08-17T19:23:15.501Z,100369.65
2022-08-17T19:25:49.284Z,100370.89
2022-08-17T19:28:27.320Z,100374.83
2022-08-17T19:31:16.616Z,100376.48
2022-08-17T19:33:47.830Z,100374.42
2022-08-17T19:36:21.973Z,100376.11
2022-08-17T19:39:38.347Z,100379.40
2022-08-17T19:42:28.434Z,100382.92
2022-08-17T19:45:15.863Z,100387.55
2022-08-17T19:47:55.348Z,100393.19
2022-08-17T19:50:47.333Z,100402.16
2022-08-17T19:53:19.712Z,100402.05
2022-08-17T19:56:04.529Z,100402.98
2022-08-17T19:59:03.803Z,100400.08
2022-08-17T20:01:44.896Z,100401.16
2022-08-17T20:04:32.311Z,100403.26
2022-08-17T20:07:06.261Z,100407.44
2022-08-17T20:09:40.152Z,100406.25
2022-08-17T20:12:14.284Z,100406.08
2022-08-17T20:14:53.267Z,100408.19
2022-08-17T20:17:39.495Z,100405.42
2022-08-17T20:20:49.438Z,100402.56
2022-08-17T20:23:48.904Z,100402.77
2022-08-17T20:26:26.968Z,100396.95
2022-08-17T20:29:09.001Z,100398.42
2022-08-17T20:31:47.388Z,100398.86
2022-08-17T20:34:30.966Z,100403.05
2022-08-17T20:37:09.709Z,100401.62
2022-08-17T20:39:44.536Z,100389.89
2022-08-17T20:42:21.160Z,100388.69
2022-08-17T20:45:03.074Z,100384.87
2022-08-17T20:48:01.167Z,100381.11
2022-08-17T20:51:11.805Z,100383.48
2022-08-17T20:53:49.276Z,100384.98
2022-08-17T20:56:45.198Z,100383.96
2022-08-17T20:59:30.363Z,100386.37
2022-08-17T21:02:17.630Z,100385.86
2022-08-17T21:04:56.338Z,100387.42
2022-08-17T21:07:32.979Z,100385.61
2022-08-17T21:10:26.212Z,100378.09
2022-08-17T21:13:01.048Z,100374.73
2022-08-17T21:15:53.530Z,100378.96
2022-08-17T21:19:16.984Z,100382.86
2022-08-17T21:21:50.333Z,100378.43
2022-08-17T21:24:55.249Z,100384.55
2022-08-17T21:27:48.743Z,100389.88
2022-08-17T21:30:33.555Z,100391.65
2022-08-17T21:33:18.689Z,100393.48
2022-08-17T21:35:59.935Z,100399.05
2022-08-17T21:38:35.900Z,100403.23
2022-08-17T21:41:04.285Z,100397.64
2022-08-17T21:43:36.497Z,100397.86
2022-08-17T21:46:20.808Z,100400.87
2022-08-17T21:48:54.391Z,100402.52
2022-08-17T21:51:30.201Z,100404.64
2022-08-17T21:54:01.576Z,100402.09
2022-08-17T21:56:35.514Z,100406.91
2022-08-17T21:59:07.853Z,100406.77
2022-08-17T22:01:40.969Z,100404.71
2022-08-17T22:04:11.631Z,100395.73
2022-08-17T22:06:43.181Z,100394.05
2022-08-17T22:09:41.371Z,100397.06
2022-08-17T22:12:12.874Z,100400.00
2022-08-17T22:14:57.060Z,100400.64
2022-08-17T22:17:28.858Z,100395.80
2022-08-17T22:19:59.755Z,100394.45
2022-08-17T22:22:56.113Z,100392.91
2022-08-17T22:25:27.114Z,100395.52
2022-08-17T22:28:01.119Z,100391.59
2022-08-17T22:30:31.407Z,100389.20
2022-08-17T22:33:01.399Z,100393.95
2022-08-17T22:35:29.002Z,100396.51
2022-08-17T22:37:57.341Z,100400.61
2022-08-17T22:40:31.929Z,100403.95
2022-08-17T22:43:03.562Z,100406.17
2022-08-17T22:45:33.529Z,100406.34
2022-08-17T22:48:02.245Z,100414.01
2022-08-17T22:50:33.257Z,100417.15
2022-08-17T22:53:31.793Z,100416.88
2022-08-17T22:56:18.140Z,100420.20
2022-08-17T22:59:11.983Z,100428.81
2022-08-17T23:01:41.811Z,100429.43
2022-08-17T23:04:13.023Z,100432.00
2022-08-17T23:06:44.233Z,100433.11
2022-08-17T23:09:11.908Z,100433.04
2022-08-17T23:11:49.964Z,100430.05
2022-08-17T23:14:20.284Z,100421.91
2022-08-17T23:16:50.324Z,100422.45
2022-08-17T23:19:21.501Z,100420.66
2022-08-17T23:21:52.541Z,100425.17
2022-08-17T23:24:25.901Z,100425.63
2022-08-17T23:26:57.314Z,100425.61
2022-08-17T23:29:29.696Z,100427.56
2022-08-17T23:31:59.931Z,100434.33
2022-08-17T23:34:28.782Z,100432.08
2022-08-17T23:36:56.595Z,100432.33
2022-08-17T23:39:28.020Z,100431.79
2022-08-17T23:42:01.536Z,100433.33
2022-08-17T23:44:31.055Z,100432.10
2022-08-17T23:46:58.742Z,100428.07
2022-08-17T23:49:26.719Z,100428.14
2022-08-17T23:51:55.239Z,100425.73
2022-08-17T23:54:43.803Z,100422.07
2022-08-17T23:57:14.674Z,100422.50
2022-08-17T23:59:44.110Z,100420.77
